Time;durP1;ratioP1;P1;durP2;ratioP2;P2;SDS_P1;SDS_P2;PMS_P1;PMS_P2;Temp;Humidity;BMP_temperature;BMP_pressure;BME280_temperature;BME280_humidity;BME280_pressure;Samples;Min_cycle;Max_cycle;Signal;HPM_P1;HPM_P2
2021/10/12 05:01:19;;;;;;;3.67;3.28;;;;;;;8.53;100.00;94568.66;5766336;23;20054;-83
2021/10/12 05:03:44;;;;;;;3.83;3.53;;;;;;;8.63;100.00;94575.22;4928860;29;20040;-83
2021/10/12 05:06:09;;;;;;;5.70;5.20;;;;;;;8.73;100.00;94580.97;4934559;29;20047;-77
2021/10/12 05:08:35;;;;;;;3.83;3.53;;;;;;;8.72;100.00;94581.16;4921820;29;20111;-76
2021/10/12 05:11:00;;;;;;;5.05;4.65;;;;;;;8.74;100.00;94581.78;4918479;29;20417;-77
2021/10/12 05:13:27;;;;;;;4.00;3.70;;;;;;;8.73;100.00;94582.78;4921806;29;20087;-76
2021/10/12 05:15:52;;;;;;;4.60;4.20;;;;;;;8.74;100.00;94584.34;4918164;29;20505;-77
2021/10/12 05:18:26;;;;;;;5.57;4.63;;;;;;;8.75;100.00;94589.38;4923208;29;20058;-76
2021/10/12 05:20:52;;;;;;;3.83;3.53;;;;;;;8.80;100.00;94584.50;4918985;29;20029;-75
2021/10/12 05:23:17;;;;;;;4.15;3.85;;;;;;;8.77;100.00;94584.84;4912546;29;20039;-77
2021/10/12 05:25:47;;;;;;;4.65;3.90;;;;;;;8.76;100.00;94588.41;4914627;29;20041;-77
2021/10/12 05:28:12;;;;;;;4.00;3.70;;;;;;;8.79;100.00;94585.50;4929146;29;20042;-77
2021/10/12 05:30:39;;;;;;;3.58;3.38;;;;;;;8.74;100.00;94580.00;5005110;23;20374;-77
2021/10/12 05:33:13;;;;;;;3.80;3.50;;;;;;;8.70;100.00;94555.50;4983685;28;20123;-79
2021/10/12 05:35:38;;;;;;;7.68;3.08;;;;;;;8.74;100.00;94567.09;4950367;28;20441;-79
2021/10/12 05:38:04;;;;;;;3.33;3.00;;;;;;;8.71;100.00;94561.47;4944504;29;20035;-79
2021/10/12 05:40:29;;;;;;;2.63;2.42;;;;;;;8.67;100.00;94563.56;4933235;29;20393;-77
2021/10/12 05:42:55;;;;;;;3.08;2.75;;;;;;;8.58;100.00;94572.34;4945512;28;20061;-78
2021/10/12 05:45:20;;;;;;;2.63;2.38;;;;;;;8.58;100.00;94564.59;4939868;29;20033;-79
2021/10/12 05:47:46;;;;;;;2.90;2.55;;;;;;;8.69;100.00;94579.72;4932689;29;20064;-78
2021/10/12 05:50:11;;;;;;;3.00;2.80;;;;;;;8.65;100.00;94577.63;4936031;29;20023;-78
2021/10/12 05:52:39;;;;;;;3.00;2.80;;;;;;;8.75;100.00;94576.47;4936703;28;20027;-77
2021/10/12 05:55:10;;;;;;;3.20;3.00;;;;;;;8.66;100.00;94563.75;4923969;29;20007;-78
2021/10/12 06:00:04;;;;;;;4.07;2.95;;;;;;;8.62;100.00;94547.81;4934301;29;20028;-78
2021/10/12 06:02:29;;;;;;;3.33;3.13;;;;;;;8.70;100.00;94570.97;4973364;28;20058;-78
2021/10/12 06:04:55;;;;;;;3.38;3.17;;;;;;;8.78;100.00;94575.31;4932525;29;20020;-79
2021/10/12 06:07:20;;;;;;;5.53;2.90;;;;;;;8.72;100.00;94563.09;4934062;28;20022;-78
2021/10/12 06:09:46;;;;;;;3.70;3.40;;;;;;;8.72;100.00;94573.41;4925804;29;20023;-79
2021/10/12 06:12:11;;;;;;;2.85;2.65;;;;;;;8.77;100.00;94569.34;4966611;28;20035;-79
2021/10/12 06:14:36;;;;;;;3.20;3.00;;;;;;;8.73;100.00;94573.22;4940883;28;20039;-78
2021/10/12 06:17:02;;;;;;;3.08;2.85;;;;;;;8.77;100.00;94566.75;4959489;28;20055;-78
2021/10/12 06:19:28;;;;;;;3.28;3.08;;;;;;;8.85;100.00;94565.91;4924415;29;20043;-77
2021/10/12 06:21:53;;;;;;;3.10;2.67;;;;;;;8.88;100.00;94568.16;4951244;28;20269;-79
2021/10/12 06:24:19;;;;;;;3.40;3.20;;;;;;;8.87;100.00;94562.19;4962973;28;20028;-80
2021/10/12 06:26:44;;;;;;;3.75;3.45;;;;;;;8.76;100.00;94560.00;4961332;28;20043;-79
2021/10/12 06:29:10;;;;;;;3.75;3.38;;;;;;;8.87;100.00;94554.44;5068596;23;20062;-79
2021/10/12 06:31:35;;;;;;;3.45;3.15;;;;;;;8.43;100.00;94487.09;4940791;28;20032;-82
2021/10/12 06:34:01;;;;;;;3.90;3.58;;;;;;;8.72;100.00;94539.84;4961102;28;20128;-80
2021/10/12 06:36:26;;;;;;;3.30;3.10;;;;;;;8.51;100.00;94512.03;5021904;23;20051;-78
2021/10/12 06:38:52;;;;;;;4.15;3.60;;;;;;;8.66;100.00;94538.75;5203392;23;20047;-81
2021/10/12 06:41:17;;;;;;;4.28;3.85;;;;;;;8.86;100.00;94570.13;4948187;28;20162;-80
2021/10/12 06:43:44;;;;;;;4.28;3.97;;;;;;;8.94;100.00;94576.03;4956721;28;20034;-78
2021/10/12 06:46:09;;;;;;;3.92;3.63;;;;;;;8.93;100.00;94568.44;4952449;28;20016;-79
2021/10/12 06:48:35;;;;;;;4.50;4.13;;;;;;;8.93;100.00;94568.44;4971152;28;20034;-78
2021/10/12 06:51:01;;;;;;;4.82;4.53;;;;;;;8.92;100.00;94559.13;4960182;28;20023;-80
2021/10/12 06:56:03;;;;;;;4.68;4.38;;;;;;;8.66;100.00;94518.09;4962311;23;20063;-81
2021/10/12 06:58:29;;;;;;;4.90;4.38;;;;;;;9.08;100.00;94573.69;4902371;29;20111;-82
2021/10/12 07:00:54;;;;;;;4.47;4.18;;;;;;;9.08;100.00;94564.19;4920954;29;20127;-84
2021/10/12 07:03:20;;;;;;;6.65;6.25;;;;;;;9.04;100.00;94557.75;4916359;29;20039;-84
2021/10/12 07:05:45;;;;;;;4.93;4.63;;;;;;;8.87;100.00;94530.41;5110899;23;20436;-80
2021/10/12 07:08:11;;;;;;;4.43;4.07;;;;;;;8.99;100.00;94527.25;4962256;28;20032;-81
2021/10/12 07:10:36;;;;;;;4.85;4.45;;;;;;;9.00;100.00;94526.28;5253581;23;20015;-82
2021/10/12 07:13:01;;;;;;;4.80;4.50;;;;;;;8.82;100.00;94506.88;4928675;29;20044;-87
2021/10/12 07:15:27;;;;;;;4.65;4.35;;;;;;;8.76;100.00;94487.72;4932760;29;20035;-79
2021/10/12 07:17:54;;;;;;;5.22;4.82;;;;;;;9.04;100.00;94516.41;4954056;28;20036;-79
2021/10/12 07:20:19;;;;;;;5.25;4.85;;;;;;;9.07;100.00;94518.66;4932635;29;20042;-84
2021/10/12 07:22:45;;;;;;;6.05;5.50;;;;;;;9.31;100.00;94543.53;4941458;29;20038;-82
2021/10/12 07:25:10;;;;;;;5.30;4.90;;;;;;;9.15;100.00;94512.63;4935650;29;20047;-83
2021/10/12 07:27:36;;;;;;;5.82;5.43;;;;;;;9.35;100.00;94549.94;4933397;29;20032;-83
2021/10/12 07:30:05;;;;;;;6.57;6.05;;;;;;;9.14;100.00;94506.66;4933800;29;20498;-84
2021/10/12 07:32:30;;;;;;;5.20;4.80;;;;;;;9.07;100.00;94497.19;4954341;29;20059;-82
2021/10/12 07:34:56;;;;;;;5.07;4.57;;;;;;;8.95;100.00;94489.84;4940179;29;20035;-89
2021/10/12 07:37:21;;;;;;;5.05;4.63;;;;;;;9.14;100.00;94522.16;4925353;29;20031;-86
2021/10/12 07:39:47;;;;;;;5.75;5.13;;;;;;;8.95;100.00;94474.34;4957952;28;20111;-79
2021/10/12 07:42:12;;;;;;;6.18;5.53;;;;;;;9.38;100.00;94515.97;5466886;23;20051;-77
2021/10/12 07:44:39;;;;;;;7.07;6.47;;;;;;;9.50;100.00;94537.88;4949209;29;20015;-80
2021/10/12 07:49:40;;;;;;;15.02;13.70;;;;;;;9.20;100.00;94482.72;5095645;23;20451;-82
2021/10/12 07:52:07;;;;;;;10.77;9.85;;;;;;;9.40;100.00;94526.97;4954185;28;20031;-80
2021/10/12 07:54:40;;;;;;;10.25;9.50;;;;;;;9.48;100.00;94527.69;4960766;28;20039;-83
2021/10/12 07:57:05;;;;;;;7.85;7.32;;;;;;;9.46;100.00;94528.84;4948296;28;20070;-82
2021/10/12 07:59:31;;;;;;;7.60;7.10;;;;;;;9.29;100.00;94537.69;4937177;29;20071;-78
2021/10/12 08:01:56;;;;;;;6.20;5.68;;;;;;;9.37;100.00;94529.91;5107759;23;20117;-78
2021/10/12 08:04:22;;;;;;;5.22;4.93;;;;;;;9.32;100.00;94527.03;4948758;28;20043;-79
2021/10/12 08:06:48;;;;;;;5.03;4.72;;;;;;;9.35;100.00;94521.50;4948045;28;20031;-81
2021/10/12 08:09:13;;;;;;;5.18;4.78;;;;;;;9.31;100.00;94521.03;4949021;28;20027;-82
2021/10/12 08:11:40;;;;;;;6.25;5.80;;;;;;;9.34;100.00;94533.63;4950482;28;20519;-81
2021/10/12 08:14:07;;;;;;;5.32;4.82;;;;;;;9.27;100.00;94532.72;4939057;29;20626;-78
2021/10/12 08:16:33;;;;;;;5.63;5.22;;;;;;;9.13;100.00;94515.38;4934064;29;20043;-81
2021/10/12 08:18:59;;;;;;;11.43;10.52;;;;;;;8.82;100.00;94473.31;5168233;23;20027;-80
2021/10/12 08:21:27;;;;;;;11.10;10.32;;;;;;;9.26;100.00;94525.13;4955411;28;20035;-81
2021/10/12 08:23:53;;;;;;;8.18;7.50;;;;;;;9.26;100.00;94515.59;4957058;28;20047;-81
2021/10/12 08:26:19;;;;;;;5.70;5.30;;;;;;;9.22;100.00;94518.69;4970443;28;20046;-85
2021/10/12 08:28:45;;;;;;;5.88;5.47;;;;;;;9.27;100.00;94500.91;5232562;23;20100;-83
2021/10/12 08:31:10;;;;;;;5.60;5.20;;;;;;;9.32;100.00;94512.31;4928560;29;20075;-83
2021/10/12 08:33:36;;;;;;;5.43;4.93;;;;;;;9.41;100.00;94521.59;4943252;29;20031;-81
2021/10/12 08:36:01;;;;;;;5.22;4.82;;;;;;;9.43;100.00;94524.03;4923938;29;20429;-80
2021/10/12 08:38:27;;;;;;;5.50;5.10;;;;;;;9.40;100.00;94514.06;4960720;29;20040;-78
2021/10/12 08:43:21;;;;;;;6.10;5.50;;;;;;;9.29;100.00;94506.69;4936622;29;20505;-79
2021/10/12 08:45:47;;;;;;;5.00;4.53;;;;;;;9.47;100.00;94520.91;5043552;23;20022;-81
2021/10/12 08:50:47;;;;;;;5.20;4.80;;;;;;;9.29;100.00;94478.28;5047601;23;20106;-80
2021/10/12 08:53:13;;;;;;;5.80;5.40;;;;;;;9.27;100.00;94467.31;4958907;28;20035;-87
2021/10/12 08:55:38;;;;;;;6.43;5.97;;;;;;;9.17;100.00;94448.69;5097048;23;20048;-79
2021/10/12 08:58:04;;;;;;;6.05;5.55;;;;;;;9.00;100.00;94445.41;5017017;23;20035;-80
2021/10/12 09:00:30;;;;;;;5.32;4.95;;;;;;;9.24;100.00;94457.34;5400765;23;20059;-87
2021/10/12 09:05:52;;;;;;;5.45;5.05;;;;;;;9.62;100.00;94496.88;4935436;29;20119;-85
2021/10/12 09:08:22;;;;;;;5.30;4.90;;;;;;;9.16;100.00;94436.72;4915002;29;20044;-81
2021/10/12 09:10:48;;;;;;;4.40;4.05;;;;;;;9.41;100.00;94461.38;4933766;29;20040;-80
2021/10/12 09:13:13;;;;;;;4.32;3.92;;;;;;;9.60;100.00;94493.69;5778466;23;20019;-82
2021/10/12 09:15:39;;;;;;;5.20;4.70;;;;;;;9.50;100.00;94483.59;4964413;28;20024;-82
2021/10/12 09:18:04;;;;;;;4.38;3.97;;;;;;;9.32;100.00;94454.66;5223646;23;20055;-80
2021/10/12 09:20:30;;;;;;;4.70;4.30;;;;;;;9.24;100.00;94454.75;5288696;23;20040;-81
2021/10/12 09:25:42;;;;;;;4.90;4.50;;;;;;;9.07;100.00;94425.66;5269015;23;20543;-81
2021/10/12 09:31:00;;;;;;;4.75;4.25;;;;;;;9.17;100.00;94443.50;5626937;23;20047;-87
2021/10/12 09:33:25;;;;;;;5.60;5.10;;;;;;;9.32;100.00;94441.75;4949234;28;20125;-87
2021/10/12 09:35:51;;;;;;;5.85;5.45;;;;;;;9.34;100.00;94429.47;4954553;28;20035;-85
2021/10/12 09:38:16;;;;;;;5.63;5.22;;;;;;;9.47;100.00;94445.19;4957845;28;20447;-87
2021/10/12 09:40:43;;;;;;;5.00;4.70;;;;;;;9.40;100.00;94424.41;4990409;28;20030;-86
2021/10/12 09:43:09;;;;;;;5.50;5.10;;;;;;;9.53;100.00;94467.72;5032172;23;20063;-84
2021/10/12 09:45:38;;;;;;;5.22;4.88;;;;;;;9.72;100.00;94485.31;4944752;28;20030;-87
2021/10/12 09:50:40;;;;;;;5.13;4.70;;;;;;;9.24;100.00;94421.16;5053829;23;20059;-85
2021/10/12 09:53:05;;;;;;;5.60;4.57;;;;;;;9.43;100.00;94436.97;4936717;28;20027;-86
2021/10/12 09:55:36;;;;;;;4.93;4.60;;;;;;;9.32;100.00;94423.66;4969785;28;20027;-85
2021/10/12 09:58:02;;;;;;;5.13;4.80;;;;;;;9.47;100.00;94458.09;5354490;23;20051;-86
2021/10/12 10:00:29;;;;;;;4.85;4.43;;;;;;;9.11;100.00;94397.72;4895169;29;20115;-85
2021/10/12 10:02:56;;;;;;;5.05;4.75;;;;;;;9.37;100.00;94449.78;4912229;29;20051;-90
2021/10/12 10:05:22;;;;;;;5.80;5.35;;;;;;;9.23;100.00;94432.47;4909286;29;20526;-83
2021/10/12 10:07:48;;;;;;;4.90;4.50;;;;;;;9.22;100.00;94418.75;5375383;23;20055;-88
2021/10/12 10:12:48;;;;;;;6.53;6.03;;;;;;;9.43;100.00;94480.91;5861391;23;20056;-81
2021/10/12 10:17:49;;;;;;;6.43;5.15;;;;;;;9.39;100.00;94471.09;5530214;23;20056;-87
2021/10/12 10:20:15;;;;;;;6.28;5.72;;;;;;;9.19;100.00;94447.50;4937631;28;20039;-89
2021/10/12 10:22:43;;;;;;;5.82;5.32;;;;;;;9.05;100.00;94426.81;4953595;29;20082;-86
2021/10/12 10:33:04;;;;;;;5.93;5.53;;;;;;;8.94;100.00;94413.34;5147898;23;20059;-83
2021/10/12 10:35:39;;;;;;;6.95;6.45;;;;;;;9.40;100.00;94485.63;4932776;29;20524;-79
2021/10/12 10:38:20;;;;;;;7.18;6.57;;;;;;;9.37;100.00;94481.63;4934185;29;20036;-84
2021/10/12 10:40:50;;;;;;;8.68;7.97;;;;;;;9.24;100.00;94478.00;4946814;28;20122;-83
2021/10/12 10:48:53;;;;;;;7.90;7.20;;;;;;;8.90;100.00;94435.31;5370189;23;20146;-81
2021/10/12 10:51:21;;;;;;;7.05;6.53;;;;;;;8.82;100.00;94407.00;4965076;28;20043;-84
2021/10/12 10:53:47;;;;;;;8.40;7.70;;;;;;;9.11;100.00;94445.00;5108283;23;20980;-83
2021/10/12 11:01:54;;;;;;;7.63;7.03;;;;;;;9.35;100.00;94438.81;5311399;23;20063;-80
2021/10/12 11:04:38;;;;;;;;;;;;;;;9.51;100.00;94461.91;5065986;23;20113;-84
2021/10/12 11:07:03;;;;;;;7.72;7.20;;;;;;;9.31;100.00;94420.28;4962262;28;19922;-86
2021/10/12 11:09:29;;;;;;;7.28;6.78;;;;;;;9.54;100.00;94446.88;4955173;28;20485;-85
2021/10/12 11:11:54;;;;;;;8.43;7.75;;;;;;;9.41;100.00;94436.31;4956898;28;20032;-82
2021/10/12 11:14:29;;;;;;;7.07;6.63;;;;;;;9.00;100.00;94357.59;4955500;28;20498;-83
2021/10/12 11:19:29;;;;;;;6.68;6.18;;;;;;;9.41;100.00;94425.19;5146204;23;20059;-84
2021/10/12 11:24:30;;;;;;;6.80;6.30;;;;;;;9.30;100.00;94397.22;5152823;23;20071;-86
2021/10/12 11:26:58;;;;;;;6.47;5.90;;;;;;;9.24;100.00;94388.38;4961468;28;20062;-87
2021/10/12 11:29:24;;;;;;;7.13;6.63;;;;;;;9.59;100.00;94425.66;4948657;28;20031;-83
2021/10/12 11:34:25;;;;;;;7.53;7.00;;;;;;;9.18;100.00;94383.13;5225704;23;20059;-87
2021/10/12 11:36:51;;;;;;;6.85;6.28;;;;;;;9.37;100.00;94383.41;4954073;29;20038;-87
2021/10/12 11:39:16;;;;;;;6.65;6.15;;;;;;;9.45;100.00;94396.25;4939917;29;20039;-87
2021/10/12 11:41:42;;;;;;;7.22;6.60;;;;;;;9.22;100.00;94348.19;4934641;29;20042;-88
2021/10/12 11:44:20;;;;;;;8.20;6.68;;;;;;;9.47;100.00;94375.41;4954677;28;20455;-89
2021/10/12 11:46:55;;;;;;;9.18;8.32;;;;;;;9.48;100.00;94376.97;4933499;29;20082;-83
2021/10/12 11:49:21;;;;;;;6.50;5.93;;;;;;;9.64;100.00;94399.25;4949723;29;20031;-80
2021/10/12 11:51:48;;;;;;;8.63;7.00;;;;;;;9.95;100.00;94423.94;4937955;29;20039;-86
2021/10/12 11:54:13;;;;;;;8.95;8.18;;;;;;;9.94;100.00;94417.19;4932698;29;20082;-87
2021/10/12 11:56:39;;;;;;;8.98;8.20;;;;;;;9.96;100.00;94414.41;4915952;29;20122;-90
2021/10/12 11:59:06;;;;;;;8.60;7.25;;;;;;;9.97;100.00;94403.88;4930149;29;20032;-86
2021/10/12 12:01:34;;;;;;;8.02;7.43;;;;;;;9.97;100.00;94406.47;4930310;29;20036;-88
2021/10/12 12:04:01;;;;;;;8.43;7.82;;;;;;;9.94;100.00;94401.66;4945970;29;20067;-88
2021/10/12 12:06:28;;;;;;;8.30;7.60;;;;;;;9.92;100.00;94408.78;4931685;29;20067;-89
2021/10/12 12:08:54;;;;;;;8.48;7.88;;;;;;;9.86;100.00;94406.91;4906385;29;20042;-87
2021/10/12 12:11:30;;;;;;;8.05;7.45;;;;;;;9.51;100.00;94358.53;5220604;23;20055;-85
2021/10/12 12:13:56;;;;;;;7.38;6.88;;;;;;;9.61;100.00;94363.44;4950709;28;20051;-87
2021/10/12 12:16:22;;;;;;;7.15;6.65;;;;;;;9.68;100.00;94385.81;4955562;28;21054;-86
2021/10/12 12:18:47;;;;;;;8.02;7.35;;;;;;;9.74;100.00;94385.09;4922369;29;20135;-88
2021/10/12 12:21:13;;;;;;;7.28;6.78;;;;;;;9.85;100.00;94418.25;4925234;29;20424;-89
2021/10/12 12:23:44;;;;;;;8.13;7.47;;;;;;;9.72;100.00;94397.41;4956386;28;20024;-92
2021/10/12 12:26:11;;;;;;;7.70;7.15;;;;;;;9.80;100.00;94404.25;4953804;29;20035;-90
2021/10/12 12:28:37;;;;;;;6.63;6.13;;;;;;;9.80;100.00;94401.66;4933124;29;20024;-86
2021/10/12 12:33:53;;;;;;;6.95;6.50;;;;;;;9.44;100.00;94365.38;5011158;23;20070;-85
2021/10/12 12:36:19;;;;;;;8.32;7.53;;;;;;;9.22;100.00;94327.50;4901628;29;20535;-88
2021/10/12 12:38:45;;;;;;;7.65;7.15;;;;;;;9.75;100.00;94406.59;4916727;29;20497;-86
2021/10/12 12:41:26;;;;;;;8.60;8.00;;;;;;;9.78;100.00;94401.06;4926972;29;20032;-88
2021/10/12 12:43:56;;;;;;;9.25;8.55;;;;;;;9.83;100.00;94409.88;4915619;28;20092;-85
2021/10/12 12:46:23;;;;;;;;;;;;;;;9.78;100.00;94407.03;4929987;29;20035;-87
2021/10/12 12:49:13;;;;;;;10.10;9.40;;;;;;;9.88;100.00;94409.34;4930448;29;20040;-85
2021/10/12 12:51:48;;;;;;;11.05;10.15;;;;;;;9.89;100.00;94409.16;4933774;29;20019;-87
2021/10/12 12:57:08;;;;;;;9.23;8.52;;;;;;;9.79;100.00;94416.38;4984757;23;20615;-87
2021/10/12 12:59:34;;;;;;;10.70;9.75;;;;;;;9.52;100.00;94386.00;4897023;29;20468;-86
2021/10/12 13:02:00;;;;;;;9.27;8.52;;;;;;;9.84;100.00;94418.44;4912322;29;20036;-87
2021/10/12 13:04:25;;;;;;;11.98;9.35;;;;;;;9.45;100.00;94383.31;4912503;29;20443;-85
2021/10/12 13:06:50;;;;;;;9.25;8.63;;;;;;;9.51;100.00;94389.53;4930257;29;20032;-79
2021/10/12 13:09:16;;;;;;;11.18;10.07;;;;;;;9.58;100.00;94400.78;4952734;29;20047;-80
2021/10/12 13:11:47;;;;;;;14.15;12.90;;;;;;;9.33;100.00;94365.84;4930394;29;20036;-79
2021/10/12 13:14:13;;;;;;;11.35;10.10;;;;;;;9.33;100.00;94371.81;4951607;29;20032;-80
2021/10/12 13:16:38;;;;;;;10.00;9.30;;;;;;;9.77;100.00;94439.03;4930065;29;20036;-79
2021/10/12 13:19:04;;;;;;;9.73;8.88;;;;;;;9.82;100.00;94435.91;4909863;29;20059;-78
2021/10/12 13:21:30;;;;;;;9.85;9.13;;;;;;;9.57;100.00;94395.81;4902395;29;20032;-79
2021/10/12 13:23:55;;;;;;;11.23;10.32;;;;;;;9.32;100.00;94361.66;5151269;23;20093;-80
2021/10/12 13:31:38;;;;;;;10.13;9.23;;;;;;;9.31;100.00;94360.84;5065823;23;20093;-79
2021/10/12 13:34:04;;;;;;;12.30;11.25;;;;;;;9.38;100.00;94379.03;5091742;23;20039;-78
2021/10/12 13:36:30;;;;;;;10.63;9.93;;;;;;;9.38;100.00;94377.25;5025956;23;20035;-79
2021/10/12 13:38:55;;;;;;;12.73;11.57;;;;;;;9.29;100.00;94377.50;4972154;28;20031;-80
2021/10/12 13:41:22;;;;;;;11.45;10.52;;;;;;;9.34;100.00;94395.88;4998747;23;20078;-81
2021/10/12 13:46:22;;;;;;;11.68;10.68;;;;;;;9.27;100.00;94397.56;5008533;23;20062;-81
2021/10/12 13:48:48;;;;;;;13.32;12.18;;;;;;;9.09;100.00;94384.97;4982589;28;20442;-81
2021/10/12 13:51:14;;;;;;;12.07;10.98;;;;;;;9.39;100.00;94429.75;4989398;28;20094;-78
2021/10/12 13:53:39;;;;;;;11.65;10.65;;;;;;;9.07;100.00;94399.03;4955545;28;20207;-78
2021/10/12 13:58:39;;;;;;;11.57;10.68;;;;;;;9.09;100.00;94415.16;4959528;28;20048;-80
2021/10/12 14:01:05;;;;;;;13.98;12.80;;;;;;;9.02;100.00;94400.34;5057431;23;20085;-81
2021/10/12 14:03:33;;;;;;;11.73;10.80;;;;;;;9.41;100.00;94477.69;4959005;28;20083;-79
2021/10/12 14:05:58;;;;;;;12.75;11.73;;;;;;;9.35;100.00;94483.56;4945844;29;20036;-78
2021/10/12 14:08:24;;;;;;;11.65;10.85;;;;;;;9.32;100.00;94483.91;4935285;29;20042;-79
2021/10/12 14:10:49;;;;;;;12.15;11.05;;;;;;;9.36;100.00;94494.69;4953647;29;20044;-77
2021/10/12 14:13:15;;;;;;;12.32;11.30;;;;;;;9.40;100.00;94501.13;4941118;28;20024;-79
2021/10/12 14:15:40;;;;;;;13.82;12.63;;;;;;;9.35;100.00;94498.25;4961755;28;20055;-79
2021/10/12 14:18:06;;;;;;;14.75;13.55;;;;;;;9.29;100.00;94496.34;4941477;29;20052;-77
2021/10/12 14:20:31;;;;;;;14.80;13.48;;;;;;;9.35;100.00;94513.75;4915407;29;20121;-77
2021/10/12 14:22:57;;;;;;;14.57;13.07;;;;;;;9.35;100.00;94513.75;4913065;29;20027;-77
2021/10/12 14:25:23;;;;;;;11.68;10.48;;;;;;;9.41;100.00;94516.44;4931956;29;20477;-79
2021/10/12 14:27:49;;;;;;;14.00;12.88;;;;;;;9.43;100.00;94511.13;4945037;29;20053;-81
2021/10/12 14:30:15;;;;;;;10.52;9.73;;;;;;;9.42;100.00;94515.47;4929266;29;20024;-82
2021/10/12 14:32:41;;;;;;;9.57;8.88;;;;;;;9.42;100.00;94514.66;4946473;29;20055;-80
2021/10/12 14:37:42;;;;;;;9.32;8.65;;;;;;;9.32;100.00;94502.00;5861934;23;20011;-81
2021/10/12 14:40:09;;;;;;;11.07;10.15;;;;;;;9.26;100.00;94494.94;5356393;23;20039;-79
2021/10/12 14:42:34;;;;;;;8.82;8.18;;;;;;;8.85;100.00;94424.72;4942365;29;20087;-79
2021/10/12 14:45:01;;;;;;;9.75;9.05;;;;;;;8.81;100.00;94423.47;4953098;29;20449;-79
2021/10/12 14:47:26;;;;;;;10.27;9.48;;;;;;;8.96;100.00;94439.78;4968853;29;20032;-79
2021/10/12 14:49:52;;;;;;;15.77;14.38;;;;;;;9.23;100.00;94491.88;5410905;23;20019;-77
2021/10/12 14:52:17;;;;;;;14.07;12.82;;;;;;;9.06;100.00;94456.81;4930188;29;20044;-78
2021/10/12 14:54:43;;;;;;;13.55;12.50;;;;;;;9.16;100.00;94472.88;4957203;29;20019;-80
2021/10/12 14:57:09;;;;;;;13.48;12.48;;;;;;;9.04;100.00;94464.75;4937344;29;20009;-79
2021/10/12 14:59:35;;;;;;;17.48;15.88;;;;;;;8.97;100.00;94454.31;5031063;23;20051;-82
2021/10/12 15:02:01;;;;;;;18.88;16.98;;;;;;;9.00;100.00;94459.13;5377463;23;20051;-83
2021/10/12 15:12:12;;;;;;;13.55;12.43;;;;;;;9.28;100.00;94511.06;5648512;23;20027;-79
2021/10/12 15:35:19;;;;;;;15.40;14.18;;;;;;;8.87;100.00;94484.72;5290144;23;20353;-83
2021/10/12 15:40:20;;;;;;;12.88;11.75;;;;;;;9.02;100.00;94512.41;5904851;23;20122;-79
2021/10/12 15:42:45;;;;;;;13.93;12.93;;;;;;;9.01;100.00;94506.44;4938212;28;20023;-81
2021/10/12 15:50:21;;;;;;;14.77;13.48;;;;;;;8.74;100.00;94474.16;5040678;23;20054;-81
2021/10/12 15:55:22;;;;;;;13.77;12.68;;;;;;;9.16;100.00;94545.22;5728748;23;19911;-82
2021/10/12 15:57:47;;;;;;;11.88;10.88;;;;;;;8.84;100.00;94499.75;4971826;28;20510;-81
2021/10/12 16:00:14;;;;;;;11.98;10.85;;;;;;;8.77;100.00;94488.50;4961597;28;20039;-79
2021/10/12 16:05:14;;;;;;;12.68;11.77;;;;;;;8.86;100.00;94511.50;5540099;23;20062;-81
2021/10/12 16:12:50;;;;;;;13.30;12.30;;;;;;;8.88;100.00;94517.34;5636433;23;20051;-86
2021/10/12 16:25:57;;;;;;;16.67;15.07;;;;;;;8.83;100.00;94526.56;5932462;23;20118;-85
2021/10/12 16:38:43;;;;;;;31.73;28.48;;;;;;;8.88;100.00;94556.06;5957103;23;20053;-80
2021/10/12 17:06:41;;;;;;;16.27;14.68;;;;;;;9.00;100.00;94606.34;5359849;23;20042;31
2021/10/12 17:17:54;;;;;;;14.18;13.07;;;;;;;8.63;100.00;94536.53;5857403;23;20176;-80
2021/10/12 17:28:06;;;;;;;16.25;14.80;;;;;;;8.45;100.00;94536.75;5714183;23;20053;-81
2021/10/12 17:30:32;;;;;;;18.25;16.55;;;;;;;8.66;100.00;94567.16;5699226;23;20032;-79
2021/10/12 17:43:20;;;;;;;18.02;16.50;;;;;;;8.84;100.00;94611.59;5559372;23;20041;-81
2021/10/12 18:03:52;;;;;;;21.02;18.98;;;;;;;8.29;100.00;94561.78;5435732;23;20039;-81
2021/10/12 18:06:18;;;;;;;21.90;19.77;;;;;;;8.73;100.00;94624.84;5088852;23;20080;-79
2021/10/12 18:11:26;;;;;;;22.33;20.05;;;;;;;8.33;100.00;94588.88;5808671;23;20666;-79
2021/10/12 18:14:01;;;;;;;20.38;18.38;;;;;;;8.51;100.00;94620.41;5446803;23;20043;-77
2021/10/12 18:16:27;;;;;;;19.95;18.10;;;;;;;8.48;100.00;94615.59;4966241;28;20040;-82
2021/10/12 18:18:53;;;;;;;23.70;21.35;;;;;;;8.58;100.00;94623.94;4961892;29;20012;-80
2021/10/12 18:34:50;;;;;;;22.23;20.00;;;;;;;8.11;100.00;94574.09;5166071;23;20114;-80
2021/10/12 18:37:16;;;;;;;19.92;18.05;;;;;;;8.17;100.00;94591.47;5036899;23;20056;-77
2021/10/12 18:39:51;;;;;;;18.70;16.90;;;;;;;8.42;100.00;94624.81;5278935;23;20022;31
2021/10/12 18:44:52;;;;;;;21.05;18.92;;;;;;;7.97;100.00;94573.78;5322912;23;20033;-77
2021/10/12 18:47:18;;;;;;;21.15;18.98;;;;;;;8.04;100.00;94580.84;5862417;23;20049;-78
2021/10/12 18:54:54;;;;;;;20.77;18.52;;;;;;;7.80;100.00;94555.94;5552928;23;20062;-77
2021/10/12 19:05:06;;;;;;;22.33;20.02;;;;;;;8.20;100.00;94614.34;5440576;23;20095;-78
2021/10/12 19:07:31;;;;;;;21.40;19.23;;;;;;;7.93;100.00;94571.69;5512166;23;20038;-81
2021/10/12 19:15:29;;;;;;;23.27;20.88;;;;;;;7.87;100.00;94562.03;5059212;23;20039;-80
2021/10/12 19:20:29;;;;;;;22.20;19.88;;;;;;;7.83;100.00;94555.63;5278037;23;20038;-79
2021/10/12 19:22:55;;;;;;;24.92;21.58;;;;;;;7.72;100.00;94545.63;5370339;23;20022;-79
2021/10/12 19:27:56;;;;;;;24.15;20.58;;;;;;;7.86;100.00;94570.75;6032546;23;20018;-79
2021/10/12 19:33:17;;;;;;;24.92;22.23;;;;;;;7.79;100.00;94564.63;5642852;23;20030;-79
2021/10/12 19:38:17;;;;;;;23.30;20.80;;;;;;;7.90;100.00;94577.16;5267431;23;20047;-79
2021/10/12 19:40:44;;;;;;;22.42;20.05;;;;;;;7.67;100.00;94546.13;5307448;23;20126;-82
2021/10/12 19:43:10;;;;;;;23.03;20.57;;;;;;;7.80;100.00;94561.88;5817504;23;21718;-78
2021/10/12 19:48:32;;;;;;;25.70;22.95;;;;;;;7.71;100.00;94547.41;6002078;23;20033;-75
2021/10/12 19:50:58;;;;;;;23.75;19.90;;;;;;;7.79;100.00;94549.97;5038791;23;20047;-79
2021/10/12 20:04:32;;;;;;;23.00;19.63;;;;;;;7.88;100.00;94558.50;5016635;23;20051;-79
2021/10/12 20:14:43;;;;;;;20.42;17.92;;;;;;;7.65;100.00;94517.13;5873845;23;20091;-77
2021/10/12 20:17:09;;;;;;;21.08;18.80;;;;;;;8.00;100.00;94577.00;4965986;29;20027;-81
2021/10/12 20:22:29;;;;;;;19.45;17.45;;;;;;;7.68;100.00;94532.28;4899947;27;20043;-79
2021/10/12 20:24:57;;;;;;;20.75;18.55;;;;;;;7.64;100.00;94525.81;4923012;29;20032;-79
2021/10/12 20:27:23;;;;;;;20.52;18.30;;;;;;;7.57;100.00;94513.78;5446853;23;21096;-81
2021/10/12 20:29:49;;;;;;;19.92;17.92;;;;;;;7.58;100.00;94512.81;4960979;28;20050;-77
2021/10/12 20:32:14;;;;;;;19.75;17.85;;;;;;;7.58;100.00;94521.31;4974067;28;20015;-79
2021/10/12 20:34:40;;;;;;;19.88;17.27;;;;;;;7.75;100.00;94532.41;4962465;28;20051;-78
2021/10/12 20:42:16;;;;;;;20.52;18.52;;;;;;;7.68;100.00;94526.31;5599585;23;20085;-80
2021/10/12 20:44:42;;;;;;;20.33;18.23;;;;;;;7.58;100.00;94505.09;4942124;29;20075;-79
2021/10/12 20:47:07;;;;;;;22.73;20.33;;;;;;;7.51;100.00;94512.66;5329575;23;20108;-80
2021/10/12 20:49:33;;;;;;;24.55;21.38;;;;;;;7.58;100.00;94521.31;4919777;29;20020;-81
2021/10/12 20:51:59;;;;;;;23.13;19.75;;;;;;;7.62;100.00;94532.94;5066031;23;20093;-79
2021/10/12 20:57:12;;;;;;;24.33;21.75;;;;;;;7.60;100.00;94526.31;5622508;23;20047;-79
2021/10/12 21:16:38;;;;;;;34.53;28.13;;;;;;;7.62;100.00;94542.41;5191144;23;21736;-80
2021/10/12 21:19:05;;;;;;;37.22;28.75;;;;;;;7.87;100.00;94583.47;5652647;23;20091;-80
2021/10/12 21:24:06;;;;;;;37.63;30.73;;;;;;;7.47;100.00;94537.13;5342083;23;20039;-80
2021/10/12 21:35:20;;;;;;;48.88;36.13;;;;;;;7.51;100.00;94535.84;5868693;23;20799;-81
2021/10/12 21:40:20;;;;;;;49.70;36.33;;;;;;;7.35;100.00;94535.84;5867572;23;20043;-81
2021/10/12 21:50:56;;;;;;;47.25;35.55;;;;;;;7.69;100.00;94590.59;5305737;23;20055;31
2021/10/12 21:53:22;;;;;;;49.40;35.47;;;;;;;7.73;100.00;94596.22;4953565;29;20119;-79
2021/10/12 21:55:48;;;;;;;48.72;35.50;;;;;;;7.59;100.00;94594.28;4965422;28;20116;-79